createdAt,value
2023-05-19T00:00:58.998Z,7.53
2023-05-19T00:03:27.000Z,6.53
2023-05-19T00:05:54.428Z,6.87
2023-05-19T00:08:24.618Z,6.73
2023-05-19T00:10:51.453Z,6.57
2023-05-19T00:13:18.272Z,6.47
2023-05-19T00:15:45.300Z,6.63
2023-05-19T00:18:14.274Z,6.03
2023-05-19T00:20:41.288Z,5.93
2023-05-19T00:23:07.993Z,6.60
2023-05-19T00:25:34.589Z,5.60
2023-05-19T00:28:02.450Z,5.90
2023-05-19T00:30:30.201Z,6.07
2023-05-19T00:32:57.064Z,5.67
2023-05-19T00:35:24.364Z,6.03
2023-05-19T00:37:50.936Z,5.37
2023-05-19T00:40:18.832Z,4.90
2023-05-19T00:42:45.560Z,5.77
2023-05-19T00:45:12.133Z,4.97
2023-05-19T00:47:39.666Z,4.77
2023-05-19T00:50:06.844Z,6.00
2023-05-19T00:52:33.744Z,4.90
2023-05-19T00:55:00.801Z,5.50
2023-05-19T00:57:28.227Z,5.17
2023-05-19T00:59:55.036Z,4.70
2023-05-19T01:02:21.800Z,4.80
2023-05-19T01:04:50.681Z,4.67
2023-05-19T01:07:18.631Z,4.80
2023-05-19T01:09:46.779Z,5.07
2023-05-19T01:12:13.301Z,4.83
2023-05-19T01:14:39.918Z,4.93
2023-05-19T01:17:30.465Z,5.37
2023-05-19T01:20:16.100Z,4.07
2023-05-19T01:23:17.800Z,5.00
2023-05-19T01:26:12.070Z,4.20
2023-05-19T01:28:56.954Z,4.43
2023-05-19T01:31:25.368Z,4.20
2023-05-19T01:33:53.719Z,3.90
2023-05-19T01:36:22.911Z,3.73
2023-05-19T01:38:53.958Z,4.63
2023-05-19T01:41:21.807Z,4.10
2023-05-19T01:43:49.580Z,4.03
2023-05-19T01:46:17.504Z,4.30
2023-05-19T01:48:45.289Z,3.97
2023-05-19T01:51:13.341Z,3.93
2023-05-19T01:53:42.505Z,3.90
2023-05-19T01:56:09.092Z,4.23
2023-05-19T01:58:47.457Z,3.43
2023-05-19T02:01:47.885Z,3.53
2023-05-19T02:04:21.503Z,3.60
2023-05-19T02:06:57.008Z,3.67
2023-05-19T02:09:34.306Z,3.40
2023-05-19T02:12:19.940Z,3.43
2023-05-19T02:15:07.973Z,3.90
2023-05-19T02:17:40.177Z,3.57
2023-05-19T02:20:09.271Z,3.27
2023-05-19T02:22:36.459Z,3.17
2023-05-19T02:25:02.985Z,3.60
2023-05-19T02:27:33.372Z,3.30
2023-05-19T02:29:59.885Z,3.30
2023-05-19T02:32:26.480Z,3.33
2023-05-19T02:34:56.497Z,3.17
2023-05-19T02:37:28.297Z,3.40
2023-05-19T02:39:55.552Z,2.73
2023-05-19T02:42:22.156Z,3.20
2023-05-19T02:44:48.998Z,3.33
2023-05-19T02:47:15.989Z,2.90
2023-05-19T02:49:44.084Z,3.17
2023-05-19T02:52:12.098Z,2.70
2023-05-19T02:54:39.225Z,2.63
2023-05-19T02:57:06.755Z,3.30
2023-05-19T02:59:33.494Z,2.90
2023-05-19T03:02:01.564Z,2.80
2023-05-19T03:04:29.206Z,2.90
2023-05-19T03:06:56.064Z,3.00
2023-05-19T03:09:22.724Z,2.87
2023-05-19T03:11:49.433Z,3.10
2023-05-19T03:14:16.175Z,2.20
2023-05-19T03:16:42.833Z,2.37
2023-05-19T03:19:09.953Z,2.60
2023-05-19T03:21:36.717Z,3.13
2023-05-19T03:24:03.512Z,2.70
2023-05-19T03:26:30.167Z,3.00
2023-05-19T03:28:57.000Z,2.70
2023-05-19T03:31:23.825Z,2.50
2023-05-19T03:33:50.679Z,2.87
2023-05-19T03:36:17.883Z,2.87
2023-05-19T03:38:44.528Z,2.60
2023-05-19T03:41:11.066Z,2.27
2023-05-19T03:43:37.699Z,2.53
2023-05-19T03:46:06.629Z,2.30
2023-05-19T03:48:56.104Z,2.67
2023-05-19T03:51:41.124Z,2.63
2023-05-19T03:54:22.542Z,2.37
2023-05-19T03:56:50.942Z,2.17
2023-05-19T03:59:17.525Z,2.60
2023-05-19T04:01:44.156Z,2.10
2023-05-19T04:04:10.990Z,2.67
2023-05-19T04:06:37.767Z,2.40
2023-05-19T04:09:13.416Z,2.30
2023-05-19T04:11:40.786Z,2.20
2023-05-19T04:14:08.005Z,2.30
2023-05-19T04:16:35.230Z,2.43
2023-05-19T04:19:02.739Z,2.37
2023-05-19T04:21:29.300Z,2.30
2023-05-19T04:23:55.961Z,2.30
2023-05-19T04:26:24.941Z,2.77
2023-05-19T04:28:52.022Z,2.30
2023-05-19T04:31:18.560Z,2.47
2023-05-19T04:33:45.146Z,2.27
2023-05-19T04:36:13.733Z,2.63
2023-05-19T04:38:42.203Z,2.00
2023-05-19T04:41:12.046Z,2.00
2023-05-19T04:43:44.627Z,2.13
2023-05-19T04:46:13.891Z,1.87
2023-05-19T04:48:42.782Z,1.93
2023-05-19T04:51:09.409Z,2.10
2023-05-19T04:53:36.534Z,2.20
2023-05-19T04:56:05.856Z,2.03
2023-05-19T04:58:33.292Z,1.80
2023-05-19T05:01:00.068Z,2.40
2023-05-19T05:03:28.396Z,1.93
2023-05-19T05:05:56.731Z,2.20
2023-05-19T05:08:23.395Z,2.20
2023-05-19T05:10:52.366Z,1.90
2023-05-19T05:13:22.217Z,2.30
2023-05-19T05:15:49.635Z,2.23
2023-05-19T05:18:16.625Z,1.83
2023-05-19T05:20:43.925Z,2.13
2023-05-19T05:23:15.166Z,2.33
2023-05-19T05:25:44.388Z,2.20
2023-05-19T05:28:11.352Z,1.60
2023-05-19T05:30:38.075Z,1.90
2023-05-19T05:33:06.683Z,1.93
2023-05-19T05:35:42.043Z,2.07
2023-05-19T05:38:11.560Z,2.03
2023-05-19T05:40:38.343Z,2.00
2023-05-19T05:43:05.631Z,2.07
2023-05-19T05:45:36.541Z,2.13
2023-05-19T05:48:03.818Z,2.17
2023-05-19T05:50:31.427Z,2.17
2023-05-19T05:53:01.575Z,2.30
2023-05-19T05:55:28.563Z,2.03
2023-05-19T05:57:56.848Z,1.73
2023-05-19T06:00:23.670Z,2.07
2023-05-19T06:02:52.817Z,2.50
2023-05-19T06:05:20.298Z,1.80
2023-05-19T06:07:48.009Z,1.77
2023-05-19T06:10:19.904Z,1.80
2023-05-19T06:12:48.088Z,1.80
2023-05-19T06:15:15.501Z,2.30
2023-05-19T06:17:51.062Z,1.93
2023-05-19T06:20:18.790Z,1.97
2023-05-19T06:22:45.449Z,1.63
2023-05-19T06:25:13.964Z,1.90
2023-05-19T06:27:41.667Z,1.90
2023-05-19T06:30:08.974Z,2.13
2023-05-19T06:32:44.807Z,1.90
2023-05-19T06:35:13.390Z,1.80
2023-05-19T06:37:40.139Z,1.83
2023-05-19T06:40:08.336Z,1.70
2023-05-19T06:42:36.444Z,1.87
2023-05-19T06:45:14.419Z,1.80
2023-05-19T06:47:42.333Z,1.80
2023-05-19T06:50:09.902Z,1.77
2023-05-19T06:52:39.269Z,1.60
2023-05-19T06:55:06.425Z,1.60
2023-05-19T06:57:33.869Z,1.70
2023-05-19T07:00:01.494Z,1.67
2023-05-19T07:02:28.306Z,1.93
2023-05-19T07:04:55.139Z,2.00
2023-05-19T07:07:22.557Z,1.60
2023-05-19T07:09:50.546Z,1.90
2023-05-19T07:12:17.985Z,1.90
2023-05-19T07:14:45.997Z,2.07
2023-05-19T07:17:13.208Z,1.80
2023-05-19T07:19:43.594Z,1.70
2023-05-19T07:22:10.256Z,1.57
2023-05-19T07:24:36.787Z,1.70
2023-05-19T07:27:03.569Z,1.63
2023-05-19T07:29:30.074Z,1.80
2023-05-19T07:31:57.981Z,1.67
2023-05-19T07:34:24.991Z,1.77
2023-05-19T07:36:52.092Z,1.57
2023-05-19T07:39:19.159Z,1.40
2023-05-19T07:41:52.490Z,1.93
2023-05-19T07:44:19.215Z,1.80
2023-05-19T07:46:45.722Z,1.60
2023-05-19T07:49:12.401Z,2.00
2023-05-19T07:51:38.907Z,1.40
2023-05-19T07:54:05.605Z,1.53
2023-05-19T07:56:32.148Z,1.53
2023-05-19T07:58:58.646Z,2.00
2023-05-19T08:01:25.111Z,1.80
2023-05-19T08:03:51.763Z,1.80
2023-05-19T08:06:18.341Z,1.90
2023-05-19T08:08:44.873Z,1.40
2023-05-19T08:11:11.929Z,1.70
2023-05-19T08:13:38.439Z,1.60
2023-05-19T08:16:05.646Z,2.07
2023-05-19T08:18:32.276Z,1.67
2023-05-19T08:20:59.076Z,1.60
2023-05-19T08:23:25.981Z,1.93
2023-05-19T08:25:52.508Z,1.90
2023-05-19T08:28:19.030Z,1.60
2023-05-19T08:30:45.571Z,1.87
2023-05-19T08:33:12.271Z,1.63
2023-05-19T08:35:38.829Z,1.50
2023-05-19T08:38:05.457Z,1.87
2023-05-19T08:40:35.049Z,1.87
2023-05-19T08:43:01.868Z,2.10
2023-05-19T08:45:28.499Z,1.60
2023-05-19T08:47:55.846Z,1.73
2023-05-19T08:50:30.552Z,1.90
2023-05-19T08:53:32.365Z,1.80
2023-05-19T08:56:16.059Z,1.50
2023-05-19T08:58:44.085Z,1.80
2023-05-19T09:01:16.492Z,1.60
2023-05-19T09:03:43.983Z,1.87
2023-05-19T09:06:14.158Z,1.80
2023-05-19T09:08:42.072Z,1.60
2023-05-19T09:11:12.162Z,1.80
2023-05-19T09:13:39.112Z,1.70
2023-05-19T09:16:06.540Z,1.50
2023-05-19T09:18:33.315Z,1.40
2023-05-19T09:21:03.358Z,1.60
2023-05-19T09:23:35.491Z,1.60
2023-05-19T09:26:04.413Z,1.83
2023-05-19T09:28:33.285Z,1.57
2023-05-19T09:31:10.179Z,1.40
2023-05-19T09:33:38.774Z,1.60
2023-05-19T09:36:08.278Z,1.93
2023-05-19T09:38:36.369Z,1.60
2023-05-19T09:41:04.556Z,1.50
2023-05-19T09:43:33.658Z,1.87
2023-05-19T09:46:03.768Z,1.50
2023-05-19T09:48:30.561Z,1.60
2023-05-19T09:50:57.878Z,1.80
2023-05-19T09:53:25.432Z,1.60
2023-05-19T09:55:58.948Z,1.80
2023-05-19T09:58:27.078Z,1.50
2023-05-19T10:00:54.790Z,1.50
2023-05-19T10:03:25.493Z,1.43
2023-05-19T10:05:53.260Z,1.70
2023-05-19T10:08:20.222Z,1.47
2023-05-19T10:10:47.739Z,1.60
2023-05-19T10:13:16.455Z,1.70
2023-05-19T10:15:57.257Z,1.73
2023-05-19T10:18:27.127Z,1.67
2023-05-19T10:20:54.686Z,1.60
2023-05-19T10:23:22.191Z,1.50
2023-05-19T10:25:50.517Z,1.50
2023-05-19T10:28:21.127Z,1.30
2023-05-19T10:30:50.879Z,1.63
2023-05-19T10:33:19.990Z,1.40
2023-05-19T10:36:08.902Z,1.70
2023-05-19T10:38:48.259Z,1.30
2023-05-19T10:41:32.087Z,1.53
2023-05-19T10:44:08.969Z,1.50
2023-05-19T10:46:35.559Z,1.60
2023-05-19T10:49:02.213Z,1.67
2023-05-19T10:51:34.009Z,1.50
2023-05-19T10:54:10.445Z,1.80
2023-05-19T10:56:42.269Z,1.63
2023-05-19T10:59:32.634Z,1.93
2023-05-19T11:02:04.742Z,1.60
2023-05-19T11:04:51.116Z,1.47
2023-05-19T11:07:22.327Z,1.70
2023-05-19T11:09:53.300Z,2.00
2023-05-19T11:12:25.229Z,1.70
2023-05-19T11:14:55.473Z,1.50
2023-05-19T11:17:24.593Z,1.63
2023-05-19T11:19:56.224Z,1.67
2023-05-19T11:22:25.768Z,1.67
2023-05-19T11:24:54.885Z,1.80
2023-05-19T11:27:38.463Z,2.00
2023-05-19T11:30:14.550Z,1.50
2023-05-19T11:32:44.052Z,1.50
2023-05-19T11:35:11.105Z,1.73
2023-05-19T11:37:37.826Z,1.43
2023-05-19T11:40:09.199Z,1.93
2023-05-19T11:42:36.981Z,1.60
2023-05-19T11:45:04.829Z,1.63
2023-05-19T11:47:45.941Z,1.47
2023-05-19T11:50:20.042Z,1.70
2023-05-19T11:52:50.272Z,1.97
2023-05-19T11:55:18.022Z,1.80
2023-05-19T11:58:05.150Z,1.57
2023-05-19T12:00:39.192Z,1.70
2023-05-19T12:03:06.805Z,1.70
2023-05-19T12:05:39.950Z,1.50
2023-05-19T12:08:08.897Z,1.80
2023-05-19T12:10:35.801Z,1.60
2023-05-19T12:13:03.341Z,1.77
2023-05-19T12:15:32.071Z,1.70
2023-05-19T12:18:02.971Z,1.40
2023-05-19T12:20:36.538Z,1.60
2023-05-19T12:23:03.864Z,1.30
2023-05-19T12:25:31.210Z,1.80
2023-05-19T12:27:59.453Z,1.17
2023-05-19T12:30:30.416Z,1.63
2023-05-19T12:32:58.048Z,1.70
2023-05-19T12:35:29.944Z,1.97
2023-05-19T12:37:56.538Z,1.40
2023-05-19T12:40:23.251Z,1.30
2023-05-19T12:42:53.240Z,1.60
2023-05-19T12:45:22.917Z,1.40
2023-05-19T12:47:50.415Z,1.40
2023-05-19T12:50:17.066Z,1.50
2023-05-19T12:52:45.872Z,1.60
2023-05-19T12:55:14.127Z,1.90
2023-05-19T12:57:44.347Z,1.40
2023-05-19T13:00:17.799Z,1.60
2023-05-19T13:03:04.837Z,1.40
2023-05-19T13:05:40.908Z,1.77
2023-05-19T13:08:09.686Z,1.30
2023-05-19T13:10:37.922Z,1.20
2023-05-19T13:13:05.070Z,1.47
2023-05-19T13:15:36.519Z,1.40
2023-05-19T13:18:09.092Z,1.60
2023-05-19T13:20:37.361Z,1.33
2023-05-19T13:23:05.697Z,1.57
2023-05-19T13:25:36.034Z,1.40
2023-05-19T13:28:06.618Z,1.70
2023-05-19T13:30:38.933Z,1.20
2023-05-19T13:33:06.216Z,1.63
2023-05-19T13:35:36.969Z,1.77
2023-05-19T13:38:05.742Z,1.47
2023-05-19T13:40:35.402Z,1.73
2023-05-19T13:43:05.923Z,1.90
2023-05-19T13:45:32.767Z,1.70
2023-05-19T13:47:59.597Z,1.70
2023-05-19T13:50:26.429Z,1.67
2023-05-19T13:52:53.657Z,1.47
2023-05-19T13:55:20.516Z,1.50
2023-05-19T13:57:47.092Z,1.47
2023-05-19T14:00:14.450Z,1.57
2023-05-19T14:02:41.245Z,1.70
2023-05-19T14:05:08.529Z,1.80
2023-05-19T14:07:35.633Z,1.30
2023-05-19T14:10:05.409Z,1.20
2023-05-19T14:12:43.150Z,1.63
2023-05-19T14:15:19.439Z,1.80
2023-05-19T14:17:46.229Z,1.80
2023-05-19T14:20:13.079Z,1.70
2023-05-19T14:22:39.576Z,1.70
2023-05-19T14:25:06.782Z,1.33
2023-05-19T14:27:33.300Z,1.80
2023-05-19T14:30:00.030Z,1.37
2023-05-19T14:32:28.641Z,1.60
2023-05-19T14:34:56.698Z,1.57
2023-05-19T14:37:23.195Z,1.87
2023-05-19T14:39:49.896Z,1.47
2023-05-19T14:42:16.417Z,1.57
2023-05-19T14:44:43.111Z,1.70
2023-05-19T14:47:11.244Z,1.67
2023-05-19T14:49:38.151Z,1.60
2023-05-19T14:52:04.869Z,1.90
2023-05-19T14:54:31.379Z,1.50
2023-05-19T14:56:57.927Z,1.43
2023-05-19T14:59:24.987Z,1.53
2023-05-19T15:01:51.647Z,1.60
2023-05-19T15:04:18.269Z,1.73
2023-05-19T15:06:48.065Z,1.40
2023-05-19T15:09:16.934Z,1.40
2023-05-19T15:11:43.530Z,1.50
2023-05-19T15:14:10.094Z,1.70
2023-05-19T15:16:36.644Z,1.50
2023-05-19T15:19:05.338Z,1.63
2023-05-19T15:21:31.907Z,1.40
2023-05-19T15:23:58.552Z,1.53
2023-05-19T15:26:27.520Z,1.53
2023-05-19T15:28:55.757Z,1.80
2023-05-19T15:31:22.525Z,1.73
2023-05-19T15:33:49.190Z,1.73
2023-05-19T15:36:16.505Z,1.50
2023-05-19T15:38:43.333Z,1.60
2023-05-19T15:41:10.209Z,1.63
2023-05-19T15:43:36.740Z,1.23
2023-05-19T15:46:04.894Z,1.57
2023-05-19T15:48:32.278Z,1.57
2023-05-19T15:50:59.574Z,1.70
2023-05-19T15:53:26.475Z,1.50
2023-05-19T15:55:52.973Z,1.60
2023-05-19T15:58:19.535Z,1.37
2023-05-19T16:00:46.193Z,1.50
2023-05-19T16:03:12.927Z,1.67
2023-05-19T16:05:39.631Z,1.40
2023-05-19T16:08:08.474Z,1.90
2023-05-19T16:10:35.572Z,1.63
2023-05-19T16:13:02.281Z,2.07
2023-05-19T16:15:28.753Z,1.80
2023-05-19T16:17:55.400Z,2.03
2023-05-19T16:20:26.621Z,1.63
2023-05-19T16:22:53.202Z,1.93
2023-05-19T16:25:20.163Z,1.37
2023-05-19T16:27:46.738Z,1.63
2023-05-19T16:30:13.577Z,1.73
2023-05-19T16:32:40.602Z,1.90
2023-05-19T16:35:07.617Z,1.47
2023-05-19T16:37:34.574Z,1.50
2023-05-19T16:40:01.365Z,1.67
2023-05-19T16:42:28.301Z,1.47
2023-05-19T16:44:54.863Z,1.77
2023-05-19T16:47:21.470Z,1.87
2023-05-19T16:49:47.952Z,1.67
2023-05-19T16:52:14.465Z,1.77
2023-05-19T16:54:41.222Z,1.80
2023-05-19T16:57:07.975Z,1.77
2023-05-19T16:59:37.228Z,1.80
2023-05-19T17:02:10.650Z,1.60
2023-05-19T17:04:40.240Z,1.60
2023-05-19T17:07:06.857Z,1.50
2023-05-19T17:09:33.550Z,1.63
2023-05-19T17:12:00.112Z,1.50
2023-05-19T17:14:26.679Z,1.30
2023-05-19T17:16:53.331Z,1.53
2023-05-19T17:19:19.895Z,1.67
2023-05-19T17:21:46.530Z,1.50
2023-05-19T17:24:13.098Z,1.50
2023-05-19T17:26:39.715Z,1.77
2023-05-19T17:29:06.521Z,1.60
2023-05-19T17:31:33.041Z,1.33
2023-05-19T17:33:59.661Z,1.63
2023-05-19T17:36:26.396Z,1.57
2023-05-19T17:38:53.082Z,1.60
2023-05-19T17:41:19.630Z,1.80
2023-05-19T17:43:46.138Z,1.57
2023-05-19T17:46:12.739Z,1.90
2023-05-19T17:48:42.172Z,1.73
2023-05-19T17:51:08.779Z,1.70
2023-05-19T17:53:35.747Z,1.60
2023-05-19T17:56:03.723Z,1.57
2023-05-19T17:58:30.507Z,1.53
2023-05-19T18:00:57.282Z,1.80
2023-05-19T18:03:24.119Z,1.90
2023-05-19T18:05:54.090Z,1.83
2023-05-19T18:08:20.927Z,1.70
2023-05-19T18:10:48.581Z,1.47
2023-05-19T18:13:17.651Z,2.00
2023-05-19T18:15:46.979Z,1.50
2023-05-19T18:18:13.705Z,1.33
2023-05-19T18:20:44.084Z,1.70
2023-05-19T18:23:10.674Z,1.60
2023-05-19T18:25:48.241Z,1.63
2023-05-19T18:28:14.797Z,1.77
2023-05-19T18:30:44.089Z,1.70
2023-05-19T18:33:10.873Z,1.50
2023-05-19T18:35:37.456Z,1.90
2023-05-19T18:38:04.046Z,1.60
2023-05-19T18:40:30.638Z,2.00
2023-05-19T18:42:57.111Z,1.80
2023-05-19T18:45:23.578Z,1.60
2023-05-19T18:47:50.107Z,1.80
2023-05-19T18:50:16.650Z,1.40
2023-05-19T18:52:43.165Z,1.73
2023-05-19T18:55:10.035Z,1.50
2023-05-19T18:57:36.804Z,1.47
2023-05-19T19:00:04.180Z,1.70
2023-05-19T19:02:31.198Z,1.53
2023-05-19T19:04:57.934Z,1.40
2023-05-19T19:07:25.726Z,1.50
2023-05-19T19:09:52.305Z,1.53
2023-05-19T19:12:20.422Z,1.70
2023-05-19T19:14:47.336Z,1.70
2023-05-19T19:17:14.159Z,1.90
2023-05-19T19:19:40.849Z,1.67
2023-05-19T19:22:07.479Z,1.53
2023-05-19T19:24:34.051Z,1.40
2023-05-19T19:27:00.663Z,1.73
2023-05-19T19:29:27.179Z,1.70
2023-05-19T19:31:54.029Z,1.63
2023-05-19T19:34:20.654Z,1.47
2023-05-19T19:36:47.935Z,1.60
2023-05-19T19:39:14.594Z,1.87
2023-05-19T19:41:41.202Z,1.60
2023-05-19T19:44:08.029Z,1.73
2023-05-19T19:46:35.079Z,1.80
2023-05-19T19:49:01.724Z,1.90
2023-05-19T19:51:28.658Z,1.77
2023-05-19T19:53:55.522Z,1.97
2023-05-19T19:56:24.528Z,1.47
2023-05-19T19:58:51.232Z,1.50
2023-05-19T20:01:20.435Z,1.50
2023-05-19T20:03:48.099Z,1.70
2023-05-19T20:06:14.813Z,1.50
2023-05-19T20:08:41.521Z,2.00
2023-05-19T20:11:08.156Z,1.90
2023-05-19T20:13:34.683Z,1.40
2023-05-19T20:16:01.411Z,2.00
2023-05-19T20:18:29.627Z,1.70
2023-05-19T20:20:56.407Z,1.90
2023-05-19T20:23:23.058Z,1.70
2023-05-19T20:26:09.281Z,1.80
2023-05-19T20:28:36.360Z,1.80
2023-05-19T20:31:02.976Z,1.47
2023-05-19T20:33:29.553Z,1.90
2023-05-19T20:35:56.192Z,1.40
2023-05-19T20:38:22.844Z,1.87
2023-05-19T20:40:49.536Z,2.10
2023-05-19T20:43:16.134Z,1.53
2023-05-19T20:45:44.028Z,1.80
2023-05-19T20:48:11.353Z,1.60
2023-05-19T20:50:39.165Z,1.63
2023-05-19T20:53:07.357Z,1.83
2023-05-19T20:55:36.175Z,1.77
2023-05-19T20:58:03.165Z,1.80
2023-05-19T21:00:30.668Z,1.67
2023-05-19T21:02:57.516Z,2.10
2023-05-19T21:05:24.483Z,1.77
2023-05-19T21:07:51.143Z,1.87
2023-05-19T21:10:17.985Z,1.83
2023-05-19T21:12:44.660Z,1.60
2023-05-19T21:15:11.563Z,1.77
2023-05-19T21:17:38.225Z,1.73
2023-05-19T21:20:05.622Z,1.60
2023-05-19T21:22:32.214Z,1.73
2023-05-19T21:24:58.782Z,1.80
2023-05-19T21:27:25.500Z,1.80
2023-05-19T21:29:55.084Z,1.90
2023-05-19T21:32:21.785Z,1.60
2023-05-19T21:34:48.340Z,1.67
2023-05-19T21:37:17.149Z,1.60
2023-05-19T21:39:44.065Z,1.50
2023-05-19T21:42:10.663Z,1.90
2023-05-19T21:44:37.201Z,1.63
2023-05-19T21:47:03.829Z,1.67
2023-05-19T21:49:31.083Z,2.03
2023-05-19T21:51:57.715Z,1.80
2023-05-19T21:54:24.479Z,2.03
2023-05-19T21:56:51.133Z,1.60
2023-05-19T21:59:17.659Z,1.80
2023-05-19T22:01:44.446Z,1.70
2023-05-19T22:04:11.364Z,2.07
2023-05-19T22:06:38.107Z,2.07
2023-05-19T22:09:04.735Z,1.90
2023-05-19T22:11:31.421Z,1.53
2023-05-19T22:13:58.062Z,1.63
2023-05-19T22:16:24.793Z,2.00
2023-05-19T22:18:51.663Z,1.57
2023-05-19T22:21:18.324Z,1.73
2023-05-19T22:23:44.923Z,1.67
2023-05-19T22:26:11.489Z,1.60
2023-05-19T22:28:38.030Z,1.53
2023-05-19T22:31:04.925Z,1.67
2023-05-19T22:33:31.557Z,1.90
2023-05-19T22:35:58.118Z,1.83
2023-05-19T22:38:24.740Z,1.60
2023-05-19T22:40:51.326Z,1.90
2023-05-19T22:43:17.925Z,1.43
2023-05-19T22:45:44.685Z,1.80
2023-05-19T22:48:11.637Z,1.67
2023-05-19T22:50:38.417Z,1.97
2023-05-19T22:53:04.982Z,1.60
2023-05-19T22:55:32.200Z,1.30
2023-05-19T22:57:59.020Z,1.70
2023-05-19T23:00:25.658Z,1.63
2023-05-19T23:02:52.393Z,1.60
2023-05-19T23:05:18.979Z,1.70
2023-05-19T23:07:45.553Z,1.80
2023-05-19T23:10:12.271Z,1.60
2023-05-19T23:12:40.044Z,1.73
2023-05-19T23:15:08.002Z,1.70
2023-05-19T23:17:34.699Z,1.67
2023-05-19T23:20:01.490Z,1.67
2023-05-19T23:22:28.198Z,1.87
2023-05-19T23:24:54.801Z,1.67
2023-05-19T23:27:21.301Z,1.67
2023-05-19T23:29:51.093Z,1.80
2023-05-19T23:32:17.811Z,1.60
2023-05-19T23:34:44.342Z,1.80
2023-05-19T23:37:11.673Z,1.77
2023-05-19T23:39:38.327Z,1.80
2023-05-19T23:42:05.729Z,1.90
2023-05-19T23:44:32.293Z,1.60
2023-05-19T23:46:58.917Z,1.70
2023-05-19T23:49:25.666Z,1.90
2023-05-19T23:51:52.547Z,1.70
2023-05-19T23:54:19.085Z,1.60
2023-05-19T23:56:46.160Z,2.17
2023-05-19T23:59:12.658Z,1.60
